Time;durP1;ratioP1;P1;durP2;ratioP2;P2;SDS_P1;SDS_P2;PMS_P1;PMS_P2;Temp;Humidity;BMP_temperature;BMP_pressure;BME280_temperature;BME280_humidity;BME280_pressure;Samples;Min_cycle;Max_cycle;Signal;HPM_P1;HPM_P2
2021/12/19 00:02:20;;;;;;;3.10;2.17;;;;;;;;;;5083465;28;20105;-29
2021/12/19 00:10:05;;;;;;;4.10;2.28;;;;;;;;;;5084058;28;20125;-30
2021/12/19 00:12:31;;;;;;;2.60;1.90;;;;;;;;;;5082710;28;20481;-29
2021/12/19 00:14:56;;;;;;;3.78;2.20;;;;;;;;;;5082628;28;20038;-33
2021/12/19 00:17:22;;;;;;;2.72;1.75;;;;;;;;;;5083422;28;20028;-30
2021/12/19 00:19:47;;;;;;;2.83;2.10;;;;;;;;;;5082948;28;20032;-32
2021/12/19 00:22:13;;;;;;;3.08;2.15;;;;;;;;;;5083466;28;20487;-29
2021/12/19 00:24:38;;;;;;;2.80;2.20;;;;;;;;;;5083319;28;20036;-30
2021/12/19 00:27:04;;;;;;;3.17;1.98;;;;;;;;;;5083316;28;20055;-29
2021/12/19 00:29:29;;;;;;;4.50;1.90;;;;;;;;;;5083240;28;20056;-31
2021/12/19 00:31:55;;;;;;;1.98;1.67;;;;;;;;;;5083293;28;20051;-30
2021/12/19 00:34:21;;;;;;;3.22;1.77;;;;;;;;;;5083026;28;20051;-31
2021/12/19 00:36:46;;;;;;;2.95;1.98;;;;;;;;;;5071149;28;20037;-34
2021/12/19 00:39:12;;;;;;;2.22;1.67;;;;;;;;;;5062952;28;20064;-33
2021/12/19 00:41:38;;;;;;;2.92;1.90;;;;;;;;;;5062528;28;20074;-32
2021/12/19 00:44:11;;;;;;;3.65;1.80;;;;;;;;;;5063347;28;20522;-33
2021/12/19 00:46:51;;;;;;;1.63;1.50;;;;;;;;;;5063047;28;20035;-30
2021/12/19 00:49:17;;;;;;;1.92;1.40;;;;;;;;;;5062971;28;20108;-33
2021/12/19 00:51:43;;;;;;;3.35;1.95;;;;;;;;;;5062608;28;20066;-32
2021/12/19 00:54:11;;;;;;;3.83;1.77;;;;;;;;;;5044718;28;20116;-31
2021/12/19 00:56:38;;;;;;;2.60;1.90;;;;;;;;;;5062515;28;20029;-32
2021/12/19 00:59:03;;;;;;;2.83;1.85;;;;;;;;;;5063431;28;20137;-30
2021/12/19 01:01:29;;;;;;;3.15;1.88;;;;;;;;;;5062924;28;20107;-30
2021/12/19 01:03:54;;;;;;;2.80;1.65;;;;;;;;;;5062816;28;20465;-32
2021/12/19 01:06:20;;;;;;;2.53;1.80;;;;;;;;;;5062381;28;20487;-30
2021/12/19 01:08:47;;;;;;;2.95;1.85;;;;;;;;;;5062979;28;20459;-33
2021/12/19 01:11:12;;;;;;;2.38;1.80;;;;;;;;;;5062922;28;20035;-29
2021/12/19 01:13:38;;;;;;;2.28;1.77;;;;;;;;;;5062626;28;20431;-31
2021/12/19 01:16:04;;;;;;;2.13;1.65;;;;;;;;;;5062986;28;20120;-29
2021/12/19 01:18:29;;;;;;;2.33;1.83;;;;;;;;;;5062304;28;20032;-29
2021/12/19 01:20:55;;;;;;;2.38;1.33;;;;;;;;;;5066846;28;20059;-33
2021/12/19 01:23:22;;;;;;;1.95;1.52;;;;;;;;;;5066923;28;20068;-29
2021/12/19 01:25:48;;;;;;;2.83;1.55;;;;;;;;;;5066209;28;20132;-31
2021/12/19 01:28:14;;;;;;;2.63;1.83;;;;;;;;;;5066536;28;20025;-34
2021/12/19 01:30:40;;;;;;;3.25;1.90;;;;;;;;;;5066550;28;20059;-32
2021/12/19 01:33:05;;;;;;;2.38;1.58;;;;;;;;;;5065916;28;20107;-31
2021/12/19 01:35:31;;;;;;;1.70;1.52;;;;;;;;;;5083631;28;20028;-29
2021/12/19 01:37:56;;;;;;;1.98;1.45;;;;;;;;;;5086383;28;20036;-32
2021/12/19 01:40:22;;;;;;;3.13;1.70;;;;;;;;;;5086565;28;20703;-33
2021/12/19 01:42:48;;;;;;;2.10;1.80;;;;;;;;;;5085948;28;20040;-35
2021/12/19 01:45:24;;;;;;;1.83;1.48;;;;;;;;;;5086678;28;20051;-30
2021/12/19 01:47:50;;;;;;;2.08;1.55;;;;;;;;;;5086338;28;20032;-35
2021/12/19 01:50:16;;;;;;;1.52;1.40;;;;;;;;;;5086240;28;20036;-32
2021/12/19 01:52:42;;;;;;;1.70;1.30;;;;;;;;;;5085939;28;20036;-29
2021/12/19 01:55:08;;;;;;;2.28;1.50;;;;;;;;;;5086699;28;20032;-31
2021/12/19 01:57:34;;;;;;;2.40;1.63;;;;;;;;;;5086324;28;20086;-33
2021/12/19 02:00:00;;;;;;;2.03;1.50;;;;;;;;;;5086116;28;20434;-30
2021/12/19 02:02:26;;;;;;;2.25;1.70;;;;;;;;;;5085602;28;20059;-33
2021/12/19 02:04:51;;;;;;;1.65;1.45;;;;;;;;;;5085889;28;20865;-32
2021/12/19 02:07:17;;;;;;;2.08;1.48;;;;;;;;;;5086000;28;20111;-33
2021/12/19 02:09:42;;;;;;;2.17;1.40;;;;;;;;;;5085633;28;20109;-34
2021/12/19 02:12:08;;;;;;;2.40;1.77;;;;;;;;;;5085269;28;20039;-30
2021/12/19 02:14:34;;;;;;;1.75;1.30;;;;;;;;;;5085675;28;20063;-29
2021/12/19 02:17:00;;;;;;;2.08;1.50;;;;;;;;;;5085626;28;20064;-29
2021/12/19 02:19:25;;;;;;;2.17;1.33;;;;;;;;;;5085546;28;20028;-30
2021/12/19 02:21:51;;;;;;;2.10;1.25;;;;;;;;;;5067702;28;20035;-37
2021/12/19 02:24:17;;;;;;;1.90;1.38;;;;;;;;;;5085550;28;20940;-30
2021/12/19 02:26:43;;;;;;;2.58;1.77;;;;;;;;;;5085262;28;20055;-31
2021/12/19 02:29:09;;;;;;;1.50;1.27;;;;;;;;;;5085132;28;20016;-30
2021/12/19 02:31:35;;;;;;;1.48;1.10;;;;;;;;;;5084632;28;20030;-29
2021/12/19 02:36:41;;;;;;;1.27;1.17;;;;;;;;;;5084794;28;20028;-32
2021/12/19 02:49:48;;;;;;;1.30;1.05;;;;;;;;;;5085636;28;20096;-31
2021/12/19 02:52:15;;;;;;;1.40;1.20;;;;;;;;;;5085138;28;20032;-30
2021/12/19 02:54:40;;;;;;;1.98;1.30;;;;;;;;;;5084868;28;20078;-29
2021/12/19 02:57:06;;;;;;;1.58;1.13;;;;;;;;;;5085082;28;20028;-35
2021/12/19 02:59:32;;;;;;;1.55;1.27;;;;;;;;;;5085152;28;20024;-34
2021/12/19 03:01:58;;;;;;;1.73;1.25;;;;;;;;;;5084749;28;20530;-30
2021/12/19 03:04:23;;;;;;;1.67;1.40;;;;;;;;;;5084570;28;20570;-32
2021/12/19 03:06:49;;;;;;;1.83;1.27;;;;;;;;;;5084471;28;20165;-30
2021/12/19 03:09:25;;;;;;;1.75;0.95;;;;;;;;;;5084294;28;20016;-31
2021/12/19 03:20:18;;;;;;;1.23;1.00;;;;;;;;;;5064146;28;20511;-30
2021/12/19 03:22:44;;;;;;;2.10;1.17;;;;;;;;;;5064218;28;20032;-31
2021/12/19 03:25:09;;;;;;;1.15;0.88;;;;;;;;;;5064314;28;20658;-29
2021/12/19 03:27:35;;;;;;;1.05;0.90;;;;;;;;;;5064163;28;20070;-29
2021/12/19 03:30:01;;;;;;;1.27;1.00;;;;;;;;;;5063705;28;20049;-30
2021/12/19 03:32:27;;;;;;;1.48;1.00;;;;;;;;;;5063845;28;20511;-33
2021/12/19 03:34:53;;;;;;;1.30;1.00;;;;;;;;;;5064083;28;20466;-32
2021/12/19 03:37:18;;;;;;;1.08;0.95;;;;;;;;;;5064588;28;20040;-31
2021/12/19 03:42:32;;;;;;;1.17;1.00;;;;;;;;;;5015740;28;20977;-35
2021/12/19 03:44:58;;;;;;;1.48;0.90;;;;;;;;;;5063628;28;20029;-31
2021/12/19 03:47:24;;;;;;;1.45;0.80;;;;;;;;;;5063915;28;20968;-33
2021/12/19 03:49:49;;;;;;;1.38;1.05;;;;;;;;;;5063915;28;20032;-32
2021/12/19 03:52:15;;;;;;;1.20;1.00;;;;;;;;;;5063189;28;20055;-32
2021/12/19 03:54:41;;;;;;;1.67;1.05;;;;;;;;;;5063325;28;20032;-35
2021/12/19 03:57:06;;;;;;;1.33;1.00;;;;;;;;;;5063279;28;20589;-31
2021/12/19 03:59:32;;;;;;;1.10;0.90;;;;;;;;;;5063716;28;20078;-31
2021/12/19 04:01:57;;;;;;;1.35;1.10;;;;;;;;;;5063626;28;20223;-30
2021/12/19 04:04:23;;;;;;;2.13;0.95;;;;;;;;;;5063353;28;20110;-31
2021/12/19 04:06:48;;;;;;;1.40;0.90;;;;;;;;;;5063489;28;20040;-31
2021/12/19 04:09:14;;;;;;;1.20;0.95;;;;;;;;;;5063458;28;20047;-32
2021/12/19 04:11:39;;;;;;;1.60;1.10;;;;;;;;;;5071105;28;20024;-33
2021/12/19 04:14:05;;;;;;;1.50;1.33;;;;;;;;;;5083036;28;20493;-33
2021/12/19 04:16:30;;;;;;;1.40;1.10;;;;;;;;;;5083152;28;20120;-33
2021/12/19 04:18:56;;;;;;;1.65;1.33;;;;;;;;;;5083589;28;20036;-30
2021/12/19 04:21:22;;;;;;;1.90;1.23;;;;;;;;;;5083505;28;20111;-35
2021/12/19 04:23:47;;;;;;;1.85;1.23;;;;;;;;;;5083012;28;20024;-35
2021/12/19 04:26:13;;;;;;;1.58;0.90;;;;;;;;;;5083156;28;20062;-28
2021/12/19 04:28:39;;;;;;;1.45;1.00;;;;;;;;;;5082996;28;20475;-31
2021/12/19 04:31:04;;;;;;;1.42;1.10;;;;;;;;;;5083256;28;20051;-32
2021/12/19 04:33:32;;;;;;;1.77;1.20;;;;;;;;;;5083142;28;20092;-30
2021/12/19 04:36:01;;;;;;;1.30;1.00;;;;;;;;;;5074186;28;20032;-29
2021/12/19 04:57:04;;;;;;;1.27;0.95;;;;;;;;;;5064217;28;20032;-31
2021/12/19 05:15:47;;;;;;;2.53;1.20;;;;;;;;;;5053695;28;20052;-32
2021/12/19 05:18:12;;;;;;;1.77;1.20;;;;;;;;;;5061339;28;20039;-34
2021/12/19 05:20:40;;;;;;;1.23;0.88;;;;;;;;;;5061359;28;20037;-29
2021/12/19 05:23:18;;;;;;;3.00;0.90;;;;;;;;;;5043380;28;20577;-30
2021/12/19 05:25:43;;;;;;;1.92;0.90;;;;;;;;;;5061746;28;20033;-31
2021/12/19 05:28:09;;;;;;;1.77;0.98;;;;;;;;;;5061800;28;20388;-34
2021/12/19 05:30:35;;;;;;;1.00;0.85;;;;;;;;;;5062040;28;20072;-34
2021/12/19 05:33:02;;;;;;;2.03;1.27;;;;;;;;;;5062630;28;20083;-31
2021/12/19 05:46:24;;;;;;;1.40;1.10;;;;;;;;;;5061676;28;20106;-29
2021/12/19 05:48:49;;;;;;;2.17;1.30;;;;;;;;;;5061513;28;20032;-29
2021/12/19 05:51:15;;;;;;;1.60;1.10;;;;;;;;;;5076969;28;20040;-34
2021/12/19 05:53:40;;;;;;;1.33;1.10;;;;;;;;;;5067085;28;20048;-33
2021/12/19 05:56:06;;;;;;;6.60;1.30;;;;;;;;;;5072758;28;20028;-30
2021/12/19 05:58:31;;;;;;;1.27;1.00;;;;;;;;;;5072822;28;20047;-29
2021/12/19 06:00:57;;;;;;;1.55;1.20;;;;;;;;;;5061731;28;20031;-28
2021/12/19 06:03:22;;;;;;;1.42;1.10;;;;;;;;;;5062980;28;20032;-28
2021/12/19 06:05:48;;;;;;;2.00;1.10;;;;;;;;;;5063484;28;20423;-28
2021/12/19 06:08:14;;;;;;;1.58;0.95;;;;;;;;;;5081503;28;20028;-34
2021/12/19 06:10:39;;;;;;;1.40;1.20;;;;;;;;;;5085347;28;20050;-34
2021/12/19 06:13:05;;;;;;;1.42;1.10;;;;;;;;;;5070637;28;20097;-29
2021/12/19 06:15:30;;;;;;;1.60;1.20;;;;;;;;;;5064792;28;20033;-33
2021/12/19 06:17:56;;;;;;;1.52;1.02;;;;;;;;;;5065482;28;20036;-31
2021/12/19 06:20:21;;;;;;;1.65;1.17;;;;;;;;;;5065374;28;20045;-30
2021/12/19 06:22:47;;;;;;;1.42;0.85;;;;;;;;;;5065446;28;20086;-30
2021/12/19 06:25:13;;;;;;;1.40;1.13;;;;;;;;;;5079450;28;20490;-30
2021/12/19 06:27:38;;;;;;;4.72;1.10;;;;;;;;;;5076057;28;20106;-31
2021/12/19 06:30:05;;;;;;;1.30;1.00;;;;;;;;;;5081503;28;20048;-31
2021/12/19 06:32:31;;;;;;;2.33;1.40;;;;;;;;;;5085541;28;20032;-31
2021/12/19 06:34:59;;;;;;;2.67;1.20;;;;;;;;;;5076609;28;20439;-29
2021/12/19 06:37:25;;;;;;;1.48;1.25;;;;;;;;;;5084625;28;20034;-32
2021/12/19 06:39:50;;;;;;;1.77;1.27;;;;;;;;;;5084598;28;20032;-31
2021/12/19 06:42:16;;;;;;;1.88;1.20;;;;;;;;;;5084599;28;20208;-34
2021/12/19 06:44:41;;;;;;;2.72;1.60;;;;;;;;;;5080275;28;20020;-33
2021/12/19 06:47:07;;;;;;;1.83;1.27;;;;;;;;;;5064650;28;20407;-28
2021/12/19 06:49:32;;;;;;;1.52;1.30;;;;;;;;;;5081486;28;20036;-32
2021/12/19 06:51:58;;;;;;;3.28;1.10;;;;;;;;;;5084529;28;20028;-28
2021/12/19 06:54:23;;;;;;;4.30;1.13;;;;;;;;;;5084540;28;20028;-34
2021/12/19 06:56:49;;;;;;;1.17;0.98;;;;;;;;;;5084876;28;20453;-30
2021/12/19 06:59:14;;;;;;;1.30;1.10;;;;;;;;;;5083527;28;20039;-29
2021/12/19 07:01:40;;;;;;;2.47;1.20;;;;;;;;;;5068178;28;20071;-31
2021/12/19 07:04:06;;;;;;;4.63;1.23;;;;;;;;;;5064468;28;20426;-27
2021/12/19 07:06:31;;;;;;;1.73;1.20;;;;;;;;;;5064542;28;20064;-30
2021/12/19 07:08:57;;;;;;;1.48;1.23;;;;;;;;;;5064604;28;20060;-31
2021/12/19 07:11:22;;;;;;;5.50;1.10;;;;;;;;;;5050338;28;20117;-31
2021/12/19 07:13:48;;;;;;;1.90;1.30;;;;;;;;;;5063500;28;20021;-30
2021/12/19 07:16:13;;;;;;;2.95;1.33;;;;;;;;;;5063012;28;20055;-29
2021/12/19 07:18:39;;;;;;;3.88;1.40;;;;;;;;;;5076801;28;20036;-30
2021/12/19 07:21:05;;;;;;;2.60;1.40;;;;;;;;;;5069750;28;20063;-30
2021/12/19 07:23:31;;;;;;;3.25;1.38;;;;;;;;;;5067286;28;20561;-29
2021/12/19 07:25:56;;;;;;;4.03;1.65;;;;;;;;;;5063378;28;20107;-30
2021/12/19 07:28:22;;;;;;;4.78;1.58;;;;;;;;;;5063619;28;20032;-27
2021/12/19 07:30:47;;;;;;;1.77;1.40;;;;;;;;;;5063824;28;20051;-33
2021/12/19 07:33:13;;;;;;;2.45;1.40;;;;;;;;;;5064141;28;20131;-31
2021/12/19 07:35:41;;;;;;;1.63;1.33;;;;;;;;;;5075294;28;20553;-31
2021/12/19 07:38:09;;;;;;;2.35;1.60;;;;;;;;;;5073642;28;20032;-33
2021/12/19 07:40:39;;;;;;;3.92;1.33;;;;;;;;;;5080620;28;20122;-34
2021/12/19 07:43:08;;;;;;;1.95;1.40;;;;;;;;;;5083838;28;20064;-27
2021/12/19 07:45:33;;;;;;;2.30;1.52;;;;;;;;;;5083369;28;20051;-32
2021/12/19 07:47:59;;;;;;;5.78;1.77;;;;;;;;;;5077363;28;20044;-30
2021/12/19 07:50:25;;;;;;;2.88;1.48;;;;;;;;;;5063051;28;20081;-29
2021/12/19 07:52:50;;;;;;;4.70;1.40;;;;;;;;;;5083172;28;20030;-33
2021/12/19 07:55:16;;;;;;;3.15;1.65;;;;;;;;;;5064661;28;20039;-32
2021/12/19 07:57:42;;;;;;;3.55;1.55;;;;;;;;;;5078132;28;20028;-34
2021/12/19 08:00:09;;;;;;;1.95;1.30;;;;;;;;;;5078140;28;20028;-30
2021/12/19 08:02:34;;;;;;;4.20;1.33;;;;;;;;;;5081818;28;20085;-33
2021/12/19 08:05:00;;;;;;;2.30;1.20;;;;;;;;;;5063109;28;20307;-29
2021/12/19 08:07:25;;;;;;;4.55;1.40;;;;;;;;;;5063307;28;20049;-28
2021/12/19 08:10:01;;;;;;;4.38;1.42;;;;;;;;;;5083354;28;20314;-36
2021/12/19 08:12:26;;;;;;;6.88;1.55;;;;;;;;;;5082615;28;20092;-31
2021/12/19 08:14:52;;;;;;;7.25;1.40;;;;;;;;;;5076357;28;20028;-31
2021/12/19 08:17:17;;;;;;;5.07;1.52;;;;;;;;;;5063075;28;20048;-31
2021/12/19 08:19:43;;;;;;;6.18;1.60;;;;;;;;;;5062229;28;20025;-31
2021/12/19 08:22:09;;;;;;;5.32;1.85;;;;;;;;;;5062438;28;20024;-28
2021/12/19 08:24:35;;;;;;;4.70;2.03;;;;;;;;;;5070852;28;20096;-29
2021/12/19 08:27:01;;;;;;;6.13;1.80;;;;;;;;;;5082576;28;20028;-29
2021/12/19 08:29:26;;;;;;;4.75;1.70;;;;;;;;;;5075668;28;20458;-27
2021/12/19 08:31:52;;;;;;;6.18;1.45;;;;;;;;;;5075175;28;20101;-33
2021/12/19 08:34:17;;;;;;;7.88;1.70;;;;;;;;;;5078698;28;20044;-29
2021/12/19 08:36:43;;;;;;;5.07;1.50;;;;;;;;;;5062160;28;20020;-34
2021/12/19 08:39:10;;;;;;;9.48;1.77;;;;;;;;;;5065269;28;20020;-32
2021/12/19 08:41:36;;;;;;;5.30;1.50;;;;;;;;;;5081854;28;20593;-32
2021/12/19 08:44:02;;;;;;;2.85;1.35;;;;;;;;;;5081343;28;20024;-30
2021/12/19 08:46:28;;;;;;;8.85;1.80;;;;;;;;;;5081233;28;20036;-33
2021/12/19 08:48:53;;;;;;;3.95;1.50;;;;;;;;;;5081627;28;20035;-33
2021/12/19 08:51:19;;;;;;;4.47;1.20;;;;;;;;;;5082287;28;20406;-32
2021/12/19 08:53:44;;;;;;;6.05;1.60;;;;;;;;;;5066598;28;20051;-32
2021/12/19 08:56:10;;;;;;;3.25;1.60;;;;;;;;;;5078521;28;20039;-34
2021/12/19 08:58:35;;;;;;;3.70;1.40;;;;;;;;;;5081627;28;20126;-29
2021/12/19 09:01:01;;;;;;;3.13;1.60;;;;;;;;;;5073305;28;20461;-33
2021/12/19 09:03:33;;;;;;;4.97;1.70;;;;;;;;;;5067165;28;20020;-33
2021/12/19 09:05:58;;;;;;;8.75;1.50;;;;;;;;;;5081544;28;20052;-28
2021/12/19 09:08:24;;;;;;;9.20;1.45;;;;;;;;;;5064259;28;20093;-32
2021/12/19 09:10:50;;;;;;;7.45;1.30;;;;;;;;;;5070932;28;20016;-28
2021/12/19 09:13:15;;;;;;;15.45;2.35;;;;;;;;;;5080823;28;20490;-34
2021/12/19 09:15:40;;;;;;;8.23;1.48;;;;;;;;;;5067731;28;20033;-30
2021/12/19 09:18:06;;;;;;;8.68;2.03;;;;;;;;;;5078878;28;20040;-32
2021/12/19 09:20:32;;;;;;;12.85;2.85;;;;;;;;;;5074862;28;20032;-29
2021/12/19 09:22:57;;;;;;;11.05;2.33;;;;;;;;;;5079138;28;20543;-30
2021/12/19 09:25:23;;;;;;;6.53;2.30;;;;;;;;;;5079848;28;20035;-32
2021/12/19 09:27:48;;;;;;;11.00;2.00;;;;;;;;;;5081313;28;20032;-32
2021/12/19 09:30:14;;;;;;;8.75;1.85;;;;;;;;;;5081433;28;20897;-31
2021/12/19 09:32:40;;;;;;;6.45;1.73;;;;;;;;;;5081369;28;20826;-34
2021/12/19 09:35:06;;;;;;;9.85;1.75;;;;;;;;;;5080732;28;20562;-31
2021/12/19 09:37:35;;;;;;;4.90;1.60;;;;;;;;;;5081292;28;20036;-29
2021/12/19 09:40:09;;;;;;;3.03;1.60;;;;;;;;;;5082591;28;20032;-30
2021/12/19 09:42:36;;;;;;;4.07;1.52;;;;;;;;;;5085638;28;20024;-33
2021/12/19 09:45:03;;;;;;;7.63;2.38;;;;;;;;;;5067236;28;20032;-34
2021/12/19 09:47:29;;;;;;;3.20;1.50;;;;;;;;;;5084731;28;20754;-32
2021/12/19 09:49:54;;;;;;;7.25;1.73;;;;;;;;;;5084648;28;20038;-32
2021/12/19 09:52:20;;;;;;;10.20;1.92;;;;;;;;;;5081181;28;20032;-29
2021/12/19 09:54:45;;;;;;;6.30;1.52;;;;;;;;;;5076067;28;20109;-33
2021/12/19 09:57:11;;;;;;;5.43;1.17;;;;;;;;;;5084928;28;20720;-28
2021/12/19 09:59:37;;;;;;;4.32;1.20;;;;;;;;;;5084318;28;20109;-31
2021/12/19 10:02:02;;;;;;;4.10;1.60;;;;;;;;;;5084940;28;20548;-32
2021/12/19 10:04:41;;;;;;;3.25;1.33;;;;;;;;;;5085062;28;20042;-28
2021/12/19 10:07:11;;;;;;;2.30;1.50;;;;;;;;;;5072675;28;20721;-29
2021/12/19 10:09:52;;;;;;;2.20;1.08;;;;;;;;;;5065143;28;20024;-35
2021/12/19 10:12:51;;;;;;;5.75;1.40;;;;;;;;;;5079396;28;20063;-33
2021/12/19 10:15:11;;;;;;;2.78;1.30;;;;;;;;;;5080090;28;20690;-29
2021/12/19 10:17:37;;;;;;;2.10;1.30;;;;;;;;;;5085220;28;20034;-30
2021/12/19 10:20:07;;;;;;;2.38;1.33;;;;;;;;;;5085407;28;20035;-33
2021/12/19 10:22:37;;;;;;;1.83;1.30;;;;;;;;;;5076557;28;20067;-30
2021/12/19 10:25:17;;;;;;;1.95;1.20;;;;;;;;;;5079503;28;20032;-31
2021/12/19 10:27:48;;;;;;;3.35;1.50;;;;;;;;;;5066771;28;20476;-30
2021/12/19 10:30:31;;;;;;;3.08;1.45;;;;;;;;;;5071516;28;20075;-33
2021/12/19 10:33:07;;;;;;;2.53;1.20;;;;;;;;;;5068591;28;20033;-29
2021/12/19 10:35:41;;;;;;;3.17;1.15;;;;;;;;;;5077381;28;20590;-31
2021/12/19 10:38:29;;;;;;;2.33;1.27;;;;;;;;;;5075255;28;20025;-31
2021/12/19 10:41:00;;;;;;;2.03;1.30;;;;;;;;;;5074111;28;20120;-32
2021/12/19 10:43:28;;;;;;;1.52;1.02;;;;;;;;;;5052968;28;20115;-33
2021/12/19 10:45:56;;;;;;;3.50;1.25;;;;;;;;;;5084193;28;20032;-31
2021/12/19 10:48:27;;;;;;;1.95;1.23;;;;;;;;;;5085267;28;20478;-29
2021/12/19 10:51:04;;;;;;;3.45;1.33;;;;;;;;;;5084453;28;20085;-29
2021/12/19 10:53:56;;;;;;;1.65;1.33;;;;;;;;;;5070921;28;20040;-33
2021/12/19 10:56:24;;;;;;;2.78;1.20;;;;;;;;;;5055506;28;20762;-36
2021/12/19 10:58:56;;;;;;;2.03;1.05;;;;;;;;;;5064631;28;20043;-31
2021/12/19 11:01:32;;;;;;;2.55;1.33;;;;;;;;;;5064647;28;20035;-29
2021/12/19 11:04:13;;;;;;;3.30;1.25;;;;;;;;;;5064353;28;20722;-29
2021/12/19 11:06:43;;;;;;;1.08;0.93;;;;;;;;;;5063575;28;20045;-31
2021/12/19 11:09:15;;;;;;;1.48;1.25;;;;;;;;;;5064856;28;20056;-30
2021/12/19 11:11:42;;;;;;;3.13;1.13;;;;;;;;;;5064583;28;20021;-33
2021/12/19 11:14:09;;;;;;;2.08;1.27;;;;;;;;;;5063722;28;20035;-30
2021/12/19 11:16:35;;;;;;;1.75;1.20;;;;;;;;;;5064020;28;20550;-34
2021/12/19 11:19:00;;;;;;;1.52;0.95;;;;;;;;;;5063695;28;20043;-30
2021/12/19 11:21:28;;;;;;;1.80;1.30;;;;;;;;;;5063617;28;20028;-28
2021/12/19 11:23:54;;;;;;;1.60;1.10;;;;;;;;;;5064362;28;20101;-29
2021/12/19 11:26:20;;;;;;;4.72;1.25;;;;;;;;;;5045664;28;20032;-29
2021/12/19 11:28:46;;;;;;;2.85;1.35;;;;;;;;;;5065760;28;20024;-30
2021/12/19 11:31:12;;;;;;;2.05;1.20;;;;;;;;;;5046157;28;20505;-31
2021/12/19 11:33:56;;;;;;;1.65;1.02;;;;;;;;;;5064739;28;20029;-31
2021/12/19 11:36:21;;;;;;;2.17;1.60;;;;;;;;;;5084182;28;20048;-34
2021/12/19 11:38:47;;;;;;;1.38;1.17;;;;;;;;;;5084069;28;20032;-32
2021/12/19 11:41:12;;;;;;;2.55;1.63;;;;;;;;;;5045569;28;20021;-32
2021/12/19 11:43:39;;;;;;;1.77;1.40;;;;;;;;;;5063537;28;20125;-33
2021/12/19 11:46:13;;;;;;;2.85;1.30;;;;;;;;;;5063638;28;20052;-31
2021/12/19 11:48:39;;;;;;;3.47;1.40;;;;;;;;;;5063335;28;20573;-34
2021/12/19 11:51:06;;;;;;;3.95;1.55;;;;;;;;;;5063113;28;20063;-31
2021/12/19 11:53:33;;;;;;;1.80;1.50;;;;;;;;;;5063044;28;20560;-34
2021/12/19 11:56:08;;;;;;;1.50;1.13;;;;;;;;;;5044883;28;20037;-31
2021/12/19 11:58:45;;;;;;;1.98;1.33;;;;;;;;;;5062813;28;20039;-30
2021/12/19 12:01:15;;;;;;;1.80;1.42;;;;;;;;;;5063894;28;20036;-30
2021/12/19 12:03:51;;;;;;;1.88;1.30;;;;;;;;;;5061961;28;20025;-29
2021/12/19 12:06:17;;;;;;;2.30;1.50;;;;;;;;;;5083871;28;20109;-28
2021/12/19 12:09:03;;;;;;;2.10;1.40;;;;;;;;;;5081968;28;20036;-31
2021/12/19 12:11:29;;;;;;;1.67;1.20;;;;;;;;;;5051377;28;20049;-30
2021/12/19 12:13:54;;;;;;;2.30;1.65;;;;;;;;;;5062967;28;20091;-31
2021/12/19 12:16:31;;;;;;;1.65;1.35;;;;;;;;;;5058395;28;20025;-33
2021/12/19 12:18:58;;;;;;;2.08;1.40;;;;;;;;;;5071073;28;20127;-32
2021/12/19 12:21:35;;;;;;;1.88;1.50;;;;;;;;;;5065614;28;20105;-33
2021/12/19 12:24:04;;;;;;;2.33;1.45;;;;;;;;;;5062414;28;20036;-30
2021/12/19 12:26:36;;;;;;;1.92;1.35;;;;;;;;;;5062987;28;20492;-30
2021/12/19 12:29:02;;;;;;;1.60;1.30;;;;;;;;;;5062927;28;20036;-29
2021/12/19 12:31:27;;;;;;;1.50;1.25;;;;;;;;;;5063007;28;20040;-30
2021/12/19 12:33:54;;;;;;;1.90;1.40;;;;;;;;;;5067965;28;20032;-32
2021/12/19 12:36:19;;;;;;;1.70;1.52;;;;;;;;;;5082933;28;20546;-33
2021/12/19 12:38:49;;;;;;;1.77;1.52;;;;;;;;;;5082595;28;20638;-29
2021/12/19 12:43:52;;;;;;;1.58;1.40;;;;;;;;;;5081844;28;20048;-30
2021/12/19 12:46:19;;;;;;;1.67;1.40;;;;;;;;;;5082151;28;20490;-30
2021/12/19 12:49:13;;;;;;;2.33;1.90;;;;;;;;;;5083026;28;20032;-30
2021/12/19 12:51:39;;;;;;;2.20;1.58;;;;;;;;;;5071272;28;20028;-32
2021/12/19 12:54:10;;;;;;;2.20;1.80;;;;;;;;;;5062279;28;20060;-29
2021/12/19 12:56:42;;;;;;;2.60;1.88;;;;;;;;;;5063179;28;20115;-31
2021/12/19 12:59:08;;;;;;;2.03;1.70;;;;;;;;;;5062523;28;20033;-31
2021/12/19 13:01:38;;;;;;;4.47;1.70;;;;;;;;;;5062190;28;20043;-28
2021/12/19 13:04:08;;;;;;;2.25;1.80;;;;;;;;;;5062358;28;20548;-35
2021/12/19 13:07:00;;;;;;;3.03;2.10;;;;;;;;;;5062299;28;20124;-28
2021/12/19 13:09:36;;;;;;;2.28;2.03;;;;;;;;;;5048508;28;20041;-32
2021/12/19 13:12:12;;;;;;;2.95;2.13;;;;;;;;;;5062438;28;20042;-32
2021/12/19 13:14:42;;;;;;;2.35;1.88;;;;;;;;;;5064437;28;20043;-31
2021/12/19 13:17:15;;;;;;;2.47;1.90;;;;;;;;;;5066395;28;20170;-35
2021/12/19 13:19:50;;;;;;;2.30;1.90;;;;;;;;;;5066333;28;20032;-34
2021/12/19 13:22:17;;;;;;;2.45;2.10;;;;;;;;;;5066370;28;20044;-29
2021/12/19 13:24:42;;;;;;;2.45;2.03;;;;;;;;;;5066909;28;20039;-30
2021/12/19 13:27:11;;;;;;;2.63;2.28;;;;;;;;;;5066223;28;20151;-32
2021/12/19 13:29:37;;;;;;;2.50;2.20;;;;;;;;;;5065997;28;20476;-34
2021/12/19 13:32:26;;;;;;;2.63;1.98;;;;;;;;;;5068939;28;20763;-33
2021/12/19 13:34:52;;;;;;;3.13;2.17;;;;;;;;;;5078771;28;20040;-31
2021/12/19 13:37:18;;;;;;;3.10;2.53;;;;;;;;;;5084652;28;20487;-29
2021/12/19 13:39:48;;;;;;;3.38;2.67;;;;;;;;;;5078039;28;20063;-31
2021/12/19 13:42:14;;;;;;;3.72;2.20;;;;;;;;;;5075932;28;20068;-28
2021/12/19 13:44:40;;;;;;;2.58;2.15;;;;;;;;;;5083261;28;20024;-32
2021/12/19 13:47:24;;;;;;;3.50;2.60;;;;;;;;;;5071775;28;20047;-29
2021/12/19 13:49:50;;;;;;;3.20;2.47;;;;;;;;;;5059878;28;20116;-28
2021/12/19 13:52:15;;;;;;;3.30;2.28;;;;;;;;;;5082563;28;20024;-34
2021/12/19 13:54:41;;;;;;;2.50;2.30;;;;;;;;;;5074043;28;20487;-28
2021/12/19 13:57:18;;;;;;;3.33;2.42;;;;;;;;;;5075500;28;20031;-30
2021/12/19 13:59:43;;;;;;;2.63;2.30;;;;;;;;;;5074804;28;20056;-34
2021/12/19 14:02:11;;;;;;;2.78;2.13;;;;;;;;;;5076660;28;20058;-32
2021/12/19 14:04:36;;;;;;;3.97;2.33;;;;;;;;;;5071450;28;20086;-33
2021/12/19 14:07:06;;;;;;;3.03;2.55;;;;;;;;;;5073310;28;20028;-30
2021/12/19 14:09:38;;;;;;;2.85;2.55;;;;;;;;;;5076525;28;20080;-32
2021/12/19 14:12:15;;;;;;;3.22;2.22;;;;;;;;;;5058630;28;20024;-30
2021/12/19 14:14:40;;;;;;;3.38;2.72;;;;;;;;;;5059229;28;20512;-32
2021/12/19 14:17:10;;;;;;;6.88;2.90;;;;;;;;;;5075585;28;20111;-32
2021/12/19 14:19:40;;;;;;;3.45;2.63;;;;;;;;;;5076813;28;20024;-31
2021/12/19 14:22:05;;;;;;;3.40;2.45;;;;;;;;;;5086027;28;20099;-31
2021/12/19 14:24:36;;;;;;;2.70;2.20;;;;;;;;;;5085225;28;20173;-29
2021/12/19 14:27:04;;;;;;;3.97;2.40;;;;;;;;;;5075270;28;20028;-33
2021/12/19 14:29:30;;;;;;;5.43;2.90;;;;;;;;;;5084639;28;20060;-32
2021/12/19 14:32:09;;;;;;;7.05;3.15;;;;;;;;;;5084615;28;20096;-31
2021/12/19 14:34:35;;;;;;;3.63;2.58;;;;;;;;;;5082449;28;20070;-30
2021/12/19 14:37:21;;;;;;;11.80;3.97;;;;;;;;;;5084514;28;20024;-32
2021/12/19 14:40:04;;;;;;;4.43;2.53;;;;;;;;;;5085114;28;20039;-32
2021/12/19 14:42:32;;;;;;;6.78;2.50;;;;;;;;;;5085479;28;20032;-34
2021/12/19 14:44:58;;;;;;;5.05;2.28;;;;;;;;;;5085230;28;20016;-33
2021/12/19 14:47:37;;;;;;;4.03;2.30;;;;;;;;;;5084966;28;20032;-29
2021/12/19 14:50:14;;;;;;;13.43;2.88;;;;;;;;;;5084619;28;20032;-32
2021/12/19 14:52:40;;;;;;;7.93;2.70;;;;;;;;;;5084185;28;20028;-32
2021/12/19 14:55:10;;;;;;;5.45;2.63;;;;;;;;;;5085423;28;20038;-34
2021/12/19 14:57:35;;;;;;;10.70;2.72;;;;;;;;;;5084983;28;20089;-31
2021/12/19 15:00:01;;;;;;;6.43;2.53;;;;;;;;;;5084218;28;20023;-30
2021/12/19 15:02:28;;;;;;;3.40;2.30;;;;;;;;;;5084809;28;20058;-30
2021/12/19 15:04:54;;;;;;;6.65;2.88;;;;;;;;;;5085245;28;20028;-34
2021/12/19 15:07:24;;;;;;;4.55;2.58;;;;;;;;;;5084964;28;20039;-35
2021/12/19 15:09:49;;;;;;;6.88;2.85;;;;;;;;;;5084419;28;20032;-32
2021/12/19 15:12:15;;;;;;;5.38;2.53;;;;;;;;;;5084566;28;20039;-30
2021/12/19 15:14:41;;;;;;;7.25;2.58;;;;;;;;;;5084852;28;20032;-34
2021/12/19 15:17:07;;;;;;;7.38;2.78;;;;;;;;;;5084382;28;20043;-35
2021/12/19 15:19:33;;;;;;;9.55;2.78;;;;;;;;;;5084005;28;20031;-29
2021/12/19 15:21:58;;;;;;;9.77;2.97;;;;;;;;;;5079303;28;20036;-32
2021/12/19 15:24:24;;;;;;;13.20;3.10;;;;;;;;;;5074526;28;20016;-31
2021/12/19 15:26:49;;;;;;;9.50;2.60;;;;;;;;;;5067197;28;20032;-34
2021/12/19 15:29:15;;;;;;;5.82;2.60;;;;;;;;;;5078170;28;20861;-29
2021/12/19 15:31:40;;;;;;;9.27;2.55;;;;;;;;;;5081646;28;20032;-30
2021/12/19 15:34:06;;;;;;;5.82;2.30;;;;;;;;;;5082018;28;20039;-35
2021/12/19 15:36:32;;;;;;;6.80;2.80;;;;;;;;;;5084456;28;20071;-30
2021/12/19 15:38:58;;;;;;;7.53;2.30;;;;;;;;;;5082979;28;20035;-29
2021/12/19 15:41:24;;;;;;;8.15;3.00;;;;;;;;;;5078596;28;20115;-32
2021/12/19 15:43:50;;;;;;;4.95;2.72;;;;;;;;;;5083046;28;20115;-31
2021/12/19 15:46:18;;;;;;;9.18;2.92;;;;;;;;;;5084088;28;20607;-33
2021/12/19 15:48:43;;;;;;;12.27;3.80;;;;;;;;;;5083433;28;20693;-33
2021/12/19 15:51:09;;;;;;;13.52;3.33;;;;;;;;;;5084136;28;20028;-33
2021/12/19 15:53:34;;;;;;;9.38;3.13;;;;;;;;;;5084376;28;20658;-30
2021/12/19 15:56:00;;;;;;;9.90;2.85;;;;;;;;;;5083276;28;20051;-33
2021/12/19 15:58:44;;;;;;;9.32;3.33;;;;;;;;;;5060551;28;20414;-30
2021/12/19 16:01:10;;;;;;;12.18;3.33;;;;;;;;;;5059903;28;20052;-29
2021/12/19 16:03:36;;;;;;;11.68;3.35;;;;;;;;;;5054676;28;20040;-33
2021/12/19 16:06:01;;;;;;;12.85;3.17;;;;;;;;;;5050849;28;20137;-28